createdAt,value
2019-06-08T00:00:27.895Z,22.88
2019-06-08T00:02:59.925Z,22.86
2019-06-08T00:05:32.025Z,22.84
2019-06-08T00:08:04.116Z,22.84
2019-06-08T00:10:35.962Z,22.83
2019-06-08T00:13:08.010Z,22.83
2019-06-08T00:15:40.824Z,22.82
2019-06-08T00:18:15.250Z,22.82
2019-06-08T00:20:47.312Z,22.80
2019-06-08T00:23:20.259Z,22.78
2019-06-08T00:25:53.251Z,22.76
2019-06-08T00:28:25.126Z,22.73
2019-06-08T00:30:57.083Z,22.68
2019-06-08T00:33:28.843Z,22.66
2019-06-08T00:36:00.786Z,22.65
2019-06-08T00:38:32.687Z,22.62
2019-06-08T00:41:04.705Z,22.60
2019-06-08T00:43:36.493Z,22.58
2019-06-08T00:46:08.350Z,22.56
2019-06-08T00:48:40.215Z,22.54
2019-06-08T00:51:12.076Z,22.53
2019-06-08T00:53:43.854Z,22.52
2019-06-08T00:56:15.794Z,22.53
2019-06-08T00:58:47.762Z,22.52
2019-06-08T01:01:22.077Z,22.53
2019-06-08T01:03:53.445Z,22.51
2019-06-08T01:06:25.664Z,22.51
2019-06-08T01:08:57.937Z,22.50
2019-06-08T01:11:29.927Z,22.48
2019-06-08T01:14:01.881Z,22.47
2019-06-08T01:16:33.972Z,22.48
2019-06-08T01:19:06.059Z,22.46
2019-06-08T01:21:38.064Z,22.47
2019-06-08T01:24:10.087Z,22.44
2019-06-08T01:26:42.195Z,22.40
2019-06-08T01:29:14.204Z,22.39
2019-06-08T01:31:46.149Z,22.39
2019-06-08T01:34:18.100Z,22.39
2019-06-08T01:36:50.167Z,22.40
2019-06-08T01:39:23.038Z,22.38
2019-06-08T01:41:55.100Z,22.33
2019-06-08T01:44:28.086Z,22.27
2019-06-08T01:47:00.205Z,22.24
2019-06-08T01:49:32.564Z,22.24
2019-06-08T01:52:04.433Z,22.26
2019-06-08T01:54:36.954Z,22.28
2019-06-08T01:57:10.063Z,22.28
2019-06-08T01:59:42.321Z,22.28
2019-06-08T02:02:14.571Z,22.28
2019-06-08T02:04:46.596Z,22.28
2019-06-08T02:07:18.625Z,22.29
2019-06-08T02:09:50.688Z,22.31
2019-06-08T02:12:22.752Z,22.30
2019-06-08T02:14:54.839Z,22.29
2019-06-08T02:17:27.347Z,22.28
2019-06-08T02:19:59.441Z,22.28
2019-06-08T02:22:31.445Z,22.27
2019-06-08T02:25:03.504Z,22.22
2019-06-08T02:27:35.878Z,22.22
2019-06-08T02:30:17.267Z,22.20
2019-06-08T02:32:49.495Z,22.18
2019-06-08T02:35:21.826Z,22.14
2019-06-08T02:37:53.839Z,22.14
2019-06-08T02:40:27.401Z,22.15
2019-06-08T02:42:59.530Z,22.13
2019-06-08T02:45:32.583Z,22.13
2019-06-08T02:48:05.474Z,22.13
2019-06-08T02:50:51.883Z,22.12
2019-06-08T02:53:24.507Z,22.10
2019-06-08T02:55:56.550Z,22.10
2019-06-08T02:58:29.242Z,22.10
2019-06-08T03:01:01.783Z,22.10
2019-06-08T03:03:35.734Z,22.10
2019-06-08T03:06:08.682Z,22.10
2019-06-08T03:08:42.100Z,22.10
2019-06-08T03:11:14.568Z,22.12
2019-06-08T03:13:47.109Z,22.12
2019-06-08T03:16:19.143Z,22.14
2019-06-08T03:18:51.287Z,22.14
2019-06-08T03:21:23.522Z,22.15
2019-06-08T03:23:55.411Z,22.13
2019-06-08T03:26:27.371Z,22.15
2019-06-08T03:28:59.513Z,22.14
2019-06-08T03:31:34.599Z,22.13
2019-06-08T03:34:06.676Z,22.15
2019-06-08T03:36:46.748Z,22.18
2019-06-08T03:39:12.405Z,22.20
2019-06-08T03:41:45.158Z,22.23
2019-06-08T03:44:17.890Z,22.23
2019-06-08T03:46:49.815Z,22.26
2019-06-08T03:49:40.292Z,22.31
2019-06-08T03:51:55.910Z,22.28
2019-06-08T03:54:27.774Z,22.32
2019-06-08T03:56:59.915Z,22.36
2019-06-08T03:59:32.110Z,22.39
2019-06-08T04:02:04.282Z,22.42
2019-06-08T04:04:37.798Z,22.46
2019-06-08T04:07:09.604Z,22.47
2019-06-08T04:09:43.480Z,22.50
2019-06-08T04:12:17.350Z,22.54
2019-06-08T04:14:50.467Z,22.54
2019-06-08T04:17:22.457Z,22.56
2019-06-08T04:20:09.325Z,22.57
2019-06-08T04:22:28.173Z,22.60
2019-06-08T04:25:00.350Z,22.60
2019-06-08T04:27:32.299Z,22.60
2019-06-08T04:30:07.435Z,22.61
2019-06-08T04:32:40.713Z,22.64
2019-06-08T04:35:12.866Z,22.67
2019-06-08T04:37:46.800Z,22.68
2019-06-08T04:40:18.562Z,22.72
2019-06-08T04:42:51.095Z,22.75
2019-06-08T04:45:23.308Z,22.76
2019-06-08T04:47:55.476Z,22.77
2019-06-08T04:50:27.536Z,22.81
2019-06-08T04:52:59.931Z,22.84
2019-06-08T04:55:32.082Z,22.88
2019-06-08T04:58:04.246Z,22.90
2019-06-08T05:00:36.516Z,22.94
2019-06-08T05:03:08.793Z,22.97
2019-06-08T05:05:43.339Z,23.02
2019-06-08T05:08:15.473Z,23.07
2019-06-08T05:10:47.633Z,23.12
2019-06-08T05:13:21.352Z,23.15
2019-06-08T05:15:53.516Z,23.21
2019-06-08T05:18:26.154Z,23.25
2019-06-08T05:20:58.366Z,23.31
2019-06-08T05:23:30.433Z,23.35
2019-06-08T05:26:02.563Z,23.40
2019-06-08T05:28:36.094Z,23.45
2019-06-08T05:31:08.214Z,23.49
2019-06-08T05:33:41.324Z,23.54
2019-06-08T05:36:13.315Z,23.60
2019-06-08T05:38:45.745Z,23.67
2019-06-08T05:41:17.814Z,23.73
2019-06-08T05:43:50.098Z,23.79
2019-06-08T05:46:22.257Z,23.84
2019-06-08T05:48:54.368Z,23.91
2019-06-08T05:51:26.407Z,23.96
2019-06-08T05:53:58.733Z,24.05
2019-06-08T05:56:30.548Z,24.11
2019-06-08T05:59:02.645Z,24.16
2019-06-08T06:01:34.702Z,24.24
2019-06-08T06:04:06.847Z,24.30
2019-06-08T06:06:40.356Z,24.38
2019-06-08T06:09:12.324Z,24.45
2019-06-08T06:11:44.806Z,24.53
2019-06-08T06:14:16.958Z,24.60
2019-06-08T06:16:49.144Z,24.67
2019-06-08T06:19:20.946Z,24.75
2019-06-08T06:21:52.803Z,24.82
2019-06-08T06:24:26.190Z,24.89
2019-06-08T06:26:58.236Z,24.98
2019-06-08T06:29:30.098Z,25.04
2019-06-08T06:32:03.062Z,25.13
2019-06-08T06:34:34.847Z,25.20
2019-06-08T06:37:06.720Z,25.27
2019-06-08T06:39:38.630Z,25.34
2019-06-08T06:42:10.538Z,25.40
2019-06-08T06:44:42.293Z,25.48
2019-06-08T06:47:14.105Z,25.56
2019-06-08T06:49:46.529Z,25.64
2019-06-08T06:52:18.533Z,25.73
2019-06-08T06:54:51.243Z,25.78
2019-06-08T06:57:23.079Z,25.85
2019-06-08T06:59:56.341Z,25.92
2019-06-08T07:02:28.643Z,25.97
2019-06-08T07:05:00.708Z,26.04
2019-06-08T07:07:32.672Z,26.12
2019-06-08T07:10:07.979Z,26.20
2019-06-08T07:12:40.084Z,26.26
2019-06-08T07:15:14.090Z,26.32
2019-06-08T07:17:46.146Z,26.40
2019-06-08T07:20:17.920Z,26.46
2019-06-08T07:22:50.277Z,26.52
2019-06-08T07:25:22.611Z,26.60
2019-06-08T07:27:55.097Z,26.65
2019-06-08T07:30:27.287Z,26.72
2019-06-08T07:32:59.477Z,26.76
2019-06-08T07:35:32.354Z,26.84
2019-06-08T07:38:04.137Z,26.91
2019-06-08T07:40:36.473Z,26.98
2019-06-08T07:43:08.652Z,27.05
2019-06-08T07:45:40.611Z,27.14
2019-06-08T07:48:12.679Z,27.22
2019-06-08T07:50:44.699Z,27.28
2019-06-08T07:53:16.571Z,27.36
2019-06-08T07:55:49.969Z,27.47
2019-06-08T07:58:22.035Z,27.56
2019-06-08T08:00:54.930Z,27.63
2019-06-08T08:03:27.567Z,27.72
2019-06-08T08:05:59.630Z,27.78
2019-06-08T08:08:33.112Z,27.89
2019-06-08T08:11:06.619Z,27.98
2019-06-08T08:13:39.872Z,28.07
2019-06-08T08:16:11.816Z,28.17
2019-06-08T08:18:43.704Z,28.26
2019-06-08T08:21:23.230Z,28.34
2019-06-08T08:23:50.225Z,28.42
2019-06-08T08:26:23.072Z,28.49
2019-06-08T08:28:57.101Z,28.56
2019-06-08T08:31:28.636Z,28.63
2019-06-08T08:34:05.831Z,28.69
2019-06-08T08:36:34.562Z,28.77
2019-06-08T08:39:08.529Z,28.87
2019-06-08T08:41:40.600Z,28.95
2019-06-08T08:44:12.440Z,29.02
2019-06-08T08:46:44.235Z,29.12
2019-06-08T08:49:18.246Z,29.20
2019-06-08T08:51:50.643Z,29.28
2019-06-08T08:54:22.946Z,29.34
2019-06-08T08:57:00.714Z,29.39
2019-06-08T08:59:28.717Z,29.48
2019-06-08T09:02:02.602Z,29.51
2019-06-08T09:04:34.090Z,29.55
2019-06-08T09:07:09.627Z,29.57
2019-06-08T09:09:39.473Z,29.62
2019-06-08T09:12:12.356Z,29.69
2019-06-08T09:14:44.318Z,29.76
2019-06-08T09:17:18.109Z,29.83
2019-06-08T09:19:52.378Z,29.83
2019-06-08T09:22:24.793Z,29.87
2019-06-08T09:25:02.479Z,29.90
2019-06-08T09:27:33.218Z,29.92
2019-06-08T09:30:08.326Z,29.97
2019-06-08T09:32:40.013Z,29.97
2019-06-08T09:35:12.590Z,30.00
2019-06-08T09:37:44.651Z,30.04
2019-06-08T09:40:16.514Z,30.09
2019-06-08T09:42:50.829Z,30.12
2019-06-08T09:45:22.180Z,30.16
2019-06-08T09:47:55.320Z,30.19
2019-06-08T09:50:27.794Z,30.25
2019-06-08T09:53:14.808Z,30.28
2019-06-08T09:55:33.205Z,30.32
2019-06-08T09:58:09.424Z,30.32
2019-06-08T10:00:39.590Z,30.31
2019-06-08T10:03:12.158Z,30.34
2019-06-08T10:05:44.119Z,30.38
2019-06-08T10:08:20.274Z,30.36
2019-06-08T10:10:49.695Z,30.38
2019-06-08T10:13:21.498Z,30.41
2019-06-08T10:15:54.925Z,30.43
2019-06-08T10:18:28.597Z,30.50
2019-06-08T10:21:02.886Z,30.55
2019-06-08T10:23:34.837Z,30.58
2019-06-08T10:26:07.009Z,30.60
2019-06-08T10:28:39.210Z,30.65
2019-06-08T10:31:12.235Z,30.69
2019-06-08T10:33:44.403Z,30.76
2019-06-08T10:36:18.243Z,30.78
2019-06-08T10:38:50.170Z,30.83
2019-06-08T10:41:24.076Z,30.89
2019-06-08T10:43:57.175Z,30.92
2019-06-08T10:46:29.231Z,30.89
2019-06-08T10:49:01.987Z,30.89
2019-06-08T10:51:34.384Z,30.93
2019-06-08T10:54:09.337Z,30.99
2019-06-08T10:56:44.341Z,31.07
2019-06-08T10:59:18.345Z,31.13
2019-06-08T11:01:49.694Z,31.16
2019-06-08T11:04:21.761Z,31.19
2019-06-08T11:06:54.025Z,31.24
2019-06-08T11:09:28.441Z,31.31
2019-06-08T11:12:01.506Z,31.41
2019-06-08T11:14:34.160Z,31.45
2019-06-08T11:17:09.578Z,31.49
2019-06-08T11:19:40.304Z,31.49
2019-06-08T11:22:14.006Z,31.50
2019-06-08T11:24:48.412Z,31.57
2019-06-08T11:27:20.229Z,31.63
2019-06-08T11:29:52.220Z,31.73
2019-06-08T11:32:24.282Z,31.78
2019-06-08T11:34:56.368Z,31.83
2019-06-08T11:37:28.241Z,31.86
2019-06-08T11:40:00.193Z,31.87
2019-06-08T11:42:31.949Z,31.89
2019-06-08T11:45:09.433Z,31.94
2019-06-08T11:47:40.789Z,31.94
2019-06-08T11:50:13.469Z,31.97
2019-06-08T11:52:45.738Z,32.04
2019-06-08T11:55:18.106Z,32.11
2019-06-08T11:57:50.482Z,32.19
2019-06-08T12:00:48.901Z,32.25
2019-06-08T12:03:21.063Z,32.30
2019-06-08T12:05:52.878Z,32.38
2019-06-08T12:08:24.599Z,32.45
2019-06-08T12:11:01.195Z,32.53
2019-06-08T12:13:29.834Z,32.62
2019-06-08T12:16:02.978Z,32.65
2019-06-08T12:18:34.966Z,32.78
2019-06-08T12:21:08.659Z,32.85
2019-06-08T12:23:40.348Z,32.92
2019-06-08T12:26:12.323Z,32.97
2019-06-08T12:28:44.119Z,33.00
2019-06-08T12:31:21.422Z,33.04
2019-06-08T12:33:49.508Z,33.10
2019-06-08T12:36:21.276Z,33.11
2019-06-08T12:38:53.234Z,33.17
2019-06-08T12:41:25.548Z,33.21
2019-06-08T12:43:58.042Z,33.26
2019-06-08T12:46:30.231Z,33.30
2019-06-08T12:49:02.097Z,33.36
2019-06-08T12:51:34.259Z,33.41
2019-06-08T12:54:09.506Z,33.44
2019-06-08T12:56:40.033Z,33.48
2019-06-08T12:59:16.169Z,33.52
2019-06-08T13:01:48.246Z,33.53
2019-06-08T13:04:23.141Z,33.54
2019-06-08T13:06:53.414Z,33.53
2019-06-08T13:09:29.729Z,33.53
2019-06-08T13:11:59.805Z,33.53
2019-06-08T13:14:31.962Z,33.52
2019-06-08T13:17:04.336Z,33.51
2019-06-08T13:19:38.510Z,33.50
2019-06-08T13:22:10.786Z,33.47
2019-06-08T13:24:42.677Z,33.45
2019-06-08T13:27:15.494Z,33.41
2019-06-08T13:29:49.881Z,33.41
2019-06-08T13:32:22.044Z,33.39
2019-06-08T13:34:54.008Z,33.34
2019-06-08T13:37:27.588Z,33.34
2019-06-08T13:39:59.807Z,33.35
2019-06-08T13:42:31.756Z,33.38
2019-06-08T13:45:07.548Z,33.40
2019-06-08T13:47:41.411Z,33.47
2019-06-08T13:50:14.905Z,33.54
2019-06-08T13:52:48.418Z,33.64
2019-06-08T13:55:35.987Z,33.66
2019-06-08T13:57:54.575Z,33.71
2019-06-08T14:00:38.602Z,33.71
2019-06-08T14:03:10.380Z,33.72
2019-06-08T14:05:42.319Z,33.71
2019-06-08T14:08:14.722Z,33.72
2019-06-08T14:10:48.256Z,33.73
2019-06-08T14:13:26.803Z,33.77
2019-06-08T14:15:54.291Z,33.77
2019-06-08T14:18:32.169Z,33.69
2019-06-08T14:21:00.267Z,33.62
2019-06-08T14:23:32.634Z,33.46
2019-06-08T14:26:04.651Z,33.41
2019-06-08T14:28:38.053Z,33.31
2019-06-08T14:31:11.109Z,33.16
2019-06-08T14:33:43.018Z,33.02
2019-06-08T14:36:15.111Z,33.00
2019-06-08T14:38:49.472Z,32.85
2019-06-08T14:41:20.994Z,32.80
2019-06-08T14:43:52.951Z,32.70
2019-06-08T14:46:26.024Z,32.57
2019-06-08T14:48:59.409Z,32.47
2019-06-08T14:51:49.364Z,32.29
2019-06-08T14:54:25.172Z,32.12
2019-06-08T14:56:54.669Z,31.97
2019-06-08T14:59:29.891Z,31.82
2019-06-08T15:01:59.866Z,31.73
2019-06-08T15:04:36.012Z,31.65
2019-06-08T15:07:05.189Z,31.55
2019-06-08T15:09:37.534Z,31.50
2019-06-08T15:12:09.565Z,31.49
2019-06-08T15:14:42.522Z,31.52
2019-06-08T15:17:14.349Z,31.47
2019-06-08T15:19:47.554Z,31.45
2019-06-08T15:22:20.838Z,31.39
2019-06-08T15:24:53.123Z,31.30
2019-06-08T15:27:26.495Z,31.29
2019-06-08T15:29:58.991Z,31.29
2019-06-08T15:32:35.016Z,31.32
2019-06-08T15:35:08.122Z,31.34
2019-06-08T15:37:40.924Z,31.36
2019-06-08T15:40:13.078Z,31.38
2019-06-08T15:42:45.039Z,31.38
2019-06-08T15:45:18.310Z,31.41
2019-06-08T15:47:50.397Z,31.44
2019-06-08T15:50:22.463Z,31.46
2019-06-08T15:52:54.794Z,31.44
2019-06-08T15:55:29.877Z,31.39
2019-06-08T15:58:00.398Z,31.36
2019-06-08T16:00:33.252Z,31.33
2019-06-08T16:03:06.063Z,31.29
2019-06-08T16:05:37.967Z,31.22
2019-06-08T16:08:09.989Z,31.17
2019-06-08T16:10:42.060Z,31.13
2019-06-08T16:13:13.821Z,31.09
2019-06-08T16:15:45.654Z,31.03
2019-06-08T16:18:17.946Z,30.99
2019-06-08T16:20:50.012Z,30.95
2019-06-08T16:23:22.078Z,30.92
2019-06-08T16:25:54.139Z,30.85
2019-06-08T16:28:26.106Z,30.80
2019-06-08T16:30:58.580Z,30.75
2019-06-08T16:33:33.120Z,30.71
2019-06-08T16:36:05.402Z,30.65
2019-06-08T16:38:38.343Z,30.60
2019-06-08T16:41:10.740Z,30.54
2019-06-08T16:43:43.101Z,30.48
2019-06-08T16:46:15.169Z,30.39
2019-06-08T16:48:47.028Z,30.31
2019-06-08T16:51:19.263Z,30.24
2019-06-08T16:53:51.672Z,30.17
2019-06-08T16:56:23.559Z,30.10
2019-06-08T16:58:55.446Z,30.02
2019-06-08T17:01:28.361Z,29.94
2019-06-08T17:04:00.267Z,29.86
2019-06-08T17:06:33.544Z,29.78
2019-06-08T17:09:07.214Z,29.72
2019-06-08T17:11:39.223Z,29.63
2019-06-08T17:14:11.066Z,29.56
2019-06-08T17:16:42.925Z,29.44
2019-06-08T17:19:14.842Z,29.35
2019-06-08T17:21:46.740Z,29.26
2019-06-08T17:24:18.668Z,29.18
2019-06-08T17:26:50.530Z,29.08
2019-06-08T17:29:22.377Z,28.97
2019-06-08T17:31:54.255Z,28.87
2019-06-08T17:34:26.128Z,28.74
2019-06-08T17:36:58.116Z,28.62
2019-06-08T17:39:31.741Z,28.53
2019-06-08T17:42:03.976Z,28.43
2019-06-08T17:44:36.486Z,28.32
2019-06-08T17:47:08.426Z,28.23
2019-06-08T17:49:40.734Z,28.13
2019-06-08T17:52:12.588Z,28.06
2019-06-08T17:54:44.488Z,27.99
2019-06-08T17:57:16.376Z,27.89
2019-06-08T17:59:48.430Z,27.79
2019-06-08T18:02:27.323Z,27.72
2019-06-08T18:04:54.402Z,27.64
2019-06-08T18:07:27.759Z,27.56
2019-06-08T18:09:59.678Z,27.47
2019-06-08T18:12:33.950Z,27.36
2019-06-08T18:15:09.130Z,27.28
2019-06-08T18:17:42.666Z,27.19
2019-06-08T18:20:17.836Z,27.09
2019-06-08T18:22:50.154Z,26.98
2019-06-08T18:25:22.354Z,26.90
2019-06-08T18:28:08.944Z,26.83
2019-06-08T18:30:28.546Z,26.76
2019-06-08T18:33:01.256Z,26.69
2019-06-08T18:35:33.212Z,26.62
2019-06-08T18:38:07.135Z,26.54
2019-06-08T18:40:40.479Z,26.47
2019-06-08T18:43:12.686Z,26.42
2019-06-08T18:45:46.317Z,26.35
2019-06-08T18:48:19.067Z,26.27
2019-06-08T18:50:50.931Z,26.20
2019-06-08T18:53:22.789Z,26.15
2019-06-08T18:55:54.852Z,26.08
2019-06-08T18:58:27.976Z,26.01
2019-06-08T19:01:00.108Z,25.95
2019-06-08T19:03:32.175Z,25.90
2019-06-08T19:06:04.135Z,25.85
2019-06-08T19:08:40.254Z,25.77
2019-06-08T19:11:10.724Z,25.71
2019-06-08T19:13:42.766Z,25.66
2019-06-08T19:16:14.757Z,25.62
2019-06-08T19:18:52.118Z,25.56
2019-06-08T19:21:20.421Z,25.51
2019-06-08T19:23:52.484Z,25.46
2019-06-08T19:26:24.558Z,25.43
2019-06-08T19:28:57.925Z,25.38
2019-06-08T19:31:30.045Z,25.35
2019-06-08T19:34:02.147Z,25.31
2019-06-08T19:36:34.041Z,25.26
2019-06-08T19:39:07.945Z,25.19
2019-06-08T19:41:41.018Z,25.15
2019-06-08T19:44:13.386Z,25.09
2019-06-08T19:46:49.536Z,25.05
2019-06-08T19:49:18.945Z,25.00
2019-06-08T19:51:53.915Z,24.98
2019-06-08T19:54:24.337Z,24.92
2019-06-08T19:56:57.456Z,24.89
2019-06-08T19:59:30.541Z,24.82
2019-06-08T20:02:02.706Z,24.82
2019-06-08T20:04:34.575Z,24.78
2019-06-08T20:07:08.696Z,24.74
2019-06-08T20:09:41.203Z,24.67
2019-06-08T20:12:13.088Z,24.63
2019-06-08T20:14:45.441Z,24.58
2019-06-08T20:17:19.439Z,24.54
2019-06-08T20:19:51.536Z,24.53
2019-06-08T20:22:23.666Z,24.49
2019-06-08T20:24:56.384Z,24.42
2019-06-08T20:27:28.116Z,24.40
2019-06-08T20:29:59.888Z,24.37
2019-06-08T20:32:32.329Z,24.30
2019-06-08T20:35:08.024Z,24.30
2019-06-08T20:37:41.484Z,24.27
2019-06-08T20:40:14.374Z,24.25
2019-06-08T20:42:51.571Z,24.25
2019-06-08T20:45:22.517Z,24.22
2019-06-08T20:47:54.818Z,24.20
2019-06-08T20:50:27.175Z,24.16
2019-06-08T20:52:59.256Z,24.15
2019-06-08T20:55:31.082Z,24.15
2019-06-08T20:58:02.838Z,24.13
2019-06-08T21:00:34.671Z,24.11
2019-06-08T21:03:08.248Z,24.10
2019-06-08T21:05:40.171Z,24.07
2019-06-08T21:08:12.010Z,24.05
2019-06-08T21:10:44.289Z,24.02
2019-06-08T21:13:17.936Z,24.02
2019-06-08T21:15:53.629Z,24.00
2019-06-08T21:18:23.889Z,24.00
2019-06-08T21:20:57.866Z,23.99
2019-06-08T21:23:31.999Z,23.99
2019-06-08T21:26:02.851Z,23.96
2019-06-08T21:28:34.603Z,23.94
2019-06-08T21:31:08.364Z,23.91
2019-06-08T21:33:39.962Z,23.88
2019-06-08T21:36:11.718Z,23.84
2019-06-08T21:38:43.788Z,23.81
2019-06-08T21:41:17.191Z,23.76
2019-06-08T21:43:53.071Z,23.75
2019-06-08T21:46:22.720Z,23.72
2019-06-08T21:48:54.640Z,23.70
2019-06-08T21:51:26.544Z,23.69
2019-06-08T21:53:59.199Z,23.66
2019-06-08T21:56:31.928Z,23.66
2019-06-08T21:59:03.791Z,23.64
2019-06-08T22:01:37.587Z,23.64
2019-06-08T22:04:09.519Z,23.67
2019-06-08T22:06:41.321Z,23.70
2019-06-08T22:09:13.168Z,23.67
2019-06-08T22:11:47.116Z,23.61
2019-06-08T22:14:18.618Z,23.53
2019-06-08T22:16:52.098Z,23.44
2019-06-08T22:19:24.284Z,23.41
2019-06-08T22:21:59.791Z,23.32
2019-06-08T22:24:29.741Z,23.27
2019-06-08T22:27:02.026Z,23.25
2019-06-08T22:29:34.914Z,23.17
2019-06-08T22:32:07.572Z,23.13
2019-06-08T22:34:39.748Z,23.10
2019-06-08T22:37:11.790Z,23.07
2019-06-08T22:39:43.643Z,23.04
2019-06-08T22:42:17.604Z,23.03
2019-06-08T22:44:49.134Z,23.01
2019-06-08T22:47:20.981Z,22.99
2019-06-08T22:49:54.759Z,22.99
2019-06-08T22:52:27.795Z,23.00
2019-06-08T22:55:04.042Z,23.00
2019-06-08T22:57:33.440Z,22.96
2019-06-08T23:00:14.571Z,22.96
2019-06-08T23:02:40.517Z,22.94
2019-06-08T23:05:12.485Z,22.95
2019-06-08T23:07:44.227Z,22.95
2019-06-08T23:10:17.477Z,22.98
2019-06-08T23:12:49.422Z,23.01
2019-06-08T23:15:21.159Z,22.97
2019-06-08T23:17:52.937Z,22.95
2019-06-08T23:20:24.900Z,22.94
2019-06-08T23:22:58.608Z,22.92
2019-06-08T23:25:30.479Z,22.91
2019-06-08T23:28:03.357Z,22.88
2019-06-08T23:30:38.075Z,22.86
2019-06-08T23:33:11.235Z,22.87
2019-06-08T23:36:08.214Z,22.88
2019-06-08T23:38:17.381Z,22.87
2019-06-08T23:40:49.632Z,22.86
2019-06-08T23:43:22.622Z,22.86
2019-06-08T23:45:54.581Z,22.83
2019-06-08T23:48:27.887Z,22.81
2019-06-08T23:51:00.549Z,22.74
2019-06-08T23:53:32.521Z,22.75
2019-06-08T23:56:06.079Z,22.73
2019-06-08T23:58:38.080Z,22.73
